DUZEAR1 KMRH-KGSO
Flight info
| Callsign | DUZEAR1 |
|---|---|
| Flight time | 1h 5m |
| Altitude | 24000 |
| Route | KMRH/21 N0278F240 DCT CIBAG DCT YOTUR DCT FAYGO DCT GAYER DCT ADEGE DCT TWHYY DCT NYGEL DCT BLOCC BLOCC2 KGSO/23R |
| Aircraft | PC12/L-SDE2FGIRWY/SB1 |
Departure
| Time | 2026-05-07 15:58 |
|---|---|
| Airport | Michael J. Smith Field (KMRH) |
Arrival
| Time | 2026-05-07 17:04 |
|---|---|
| Airport | Piedmont Triad International Airport (KGSO) |
| Time | Latitude | Longitude | Altitude | Speed | Heading |
|---|---|---|---|---|---|
| 2026-05-07 15:42 | 34.73412 | -76.65494 | 13 ft | 0 kts | 267° |
| 2026-05-07 15:55 | 34.73415 | -76.65513 | 13 ft | 8 kts | 302° |
| 2026-05-07 15:55 | 34.73509 | -76.65523 | 13 ft | 16 kts | 359° |
| 2026-05-07 15:55 | 34.73612 | -76.65525 | 13 ft | 5 kts | 354° |
| 2026-05-07 15:56 | 34.73614 | -76.65526 | 13 ft | 0 kts | 359° |
| 2026-05-07 15:57 | 34.73654 | -76.65533 | 13 ft | 9 kts | 343° |
| 2026-05-07 15:57 | 34.73653 | -76.65618 | 13 ft | 13 kts | 250° |
| 2026-05-07 15:57 | 34.73583 | -76.65711 | 13 ft | 24 kts | 204° |
| 2026-05-07 15:58 | 34.73248 | -76.65900 | 31 ft | 80 kts | 205° |
| 2026-05-07 15:58 | 34.72596 | -76.66295 | 196 ft | 125 kts | 219° |
| 2026-05-07 15:58 | 34.72288 | -76.67369 | 707 ft | 146 kts | 252° |
| 2026-05-07 15:58 | 34.72045 | -76.68551 | 1503 ft | 135 kts | 251° |
| 2026-05-07 15:59 | 34.71848 | -76.69563 | 2577 ft | 112 kts | 257° |
| 2026-05-07 15:59 | 34.71737 | -76.70445 | 3498 ft | 104 kts | 254° |
| 2026-05-07 15:59 | 34.71618 | -76.71310 | 4271 ft | 104 kts | 254° |
| 2026-05-07 15:59 | 34.71538 | -76.72188 | 5121 ft | 106 kts | 262° |
| 2026-05-07 16:00 | 34.71613 | -76.73088 | 5973 ft | 110 kts | 270° |
| 2026-05-07 16:00 | 34.71831 | -76.73997 | 6786 ft | 113 kts | 275° |
| 2026-05-07 16:00 | 34.72060 | -76.74924 | 7557 ft | 116 kts | 274° |
| 2026-05-07 16:00 | 34.72295 | -76.75865 | 8340 ft | 118 kts | 274° |
| 2026-05-07 16:01 | 34.72536 | -76.76831 | 9132 ft | 121 kts | 274° |
| 2026-05-07 16:01 | 34.72781 | -76.77815 | 9921 ft | 123 kts | 274° |
| 2026-05-07 16:01 | 34.73032 | -76.78824 | 10603 ft | 127 kts | 274° |
| 2026-05-07 16:01 | 34.73290 | -76.79864 | 11307 ft | 130 kts | 275° |
| 2026-05-07 16:02 | 34.73562 | -76.80941 | 12016 ft | 137 kts | 276° |
| 2026-05-07 16:02 | 34.73834 | -76.82048 | 12727 ft | 139 kts | 277° |
| 2026-05-07 16:02 | 34.74117 | -76.83191 | 13459 ft | 142 kts | 277° |
| 2026-05-07 16:02 | 34.74412 | -76.84352 | 14120 ft | 144 kts | 278° |
| 2026-05-07 16:03 | 34.74703 | -76.85514 | 14809 ft | 144 kts | 278° |
| 2026-05-07 16:03 | 34.74993 | -76.86677 | 15515 ft | 143 kts | 278° |
| 2026-05-07 16:03 | 34.75281 | -76.87834 | 16209 ft | 143 kts | 279° |
| 2026-05-07 16:03 | 34.75567 | -76.88986 | 16911 ft | 142 kts | 279° |
| 2026-05-07 16:04 | 34.75849 | -76.90122 | 17594 ft | 142 kts | 279° |
| 2026-05-07 16:04 | 34.76136 | -76.91274 | 18282 ft | 142 kts | 280° |
| 2026-05-07 16:04 | 34.76422 | -76.92425 | 18876 ft | 143 kts | 280° |
| 2026-05-07 16:04 | 34.76706 | -76.93570 | 19471 ft | 143 kts | 281° |
| 2026-05-07 16:05 | 34.76994 | -76.94729 | 20075 ft | 144 kts | 281° |
| 2026-05-07 16:05 | 34.77283 | -76.95894 | 20683 ft | 144 kts | 281° |
| 2026-05-07 16:05 | 34.77572 | -76.97062 | 21289 ft | 144 kts | 281° |
| 2026-05-07 16:05 | 34.77862 | -76.98231 | 21895 ft | 145 kts | 282° |
| 2026-05-07 16:06 | 34.78153 | -76.99411 | 22512 ft | 147 kts | 282° |
| 2026-05-07 16:06 | 34.78434 | -77.00534 | 23103 ft | 148 kts | 282° |
| 2026-05-07 16:06 | 34.78725 | -77.01715 | 23674 ft | 145 kts | 281° |
| 2026-05-07 16:06 | 34.79027 | -77.02940 | 23919 ft | 161 kts | 283° |
| 2026-05-07 16:07 | 34.79368 | -77.04332 | 23957 ft | 182 kts | 283° |
| 2026-05-07 16:07 | 34.79752 | -77.05890 | 23962 ft | 200 kts | 283° |
| 2026-05-07 16:07 | 34.80168 | -77.07559 | 23959 ft | 210 kts | 283° |
| 2026-05-07 16:07 | 34.80596 | -77.09280 | 23948 ft | 216 kts | 283° |
| 2026-05-07 16:08 | 34.81031 | -77.11043 | 23952 ft | 218 kts | 284° |
| 2026-05-07 16:08 | 34.81471 | -77.12823 | 23947 ft | 220 kts | 283° |
| 2026-05-07 16:08 | 34.81819 | -77.14253 | 23943 ft | 221 kts | 283° |
| 2026-05-07 16:08 | 34.82193 | -77.15777 | 23940 ft | 222 kts | 283° |
| 2026-05-07 16:09 | 34.82638 | -77.17580 | 23942 ft | 223 kts | 283° |
| 2026-05-07 16:09 | 34.83077 | -77.19366 | 23942 ft | 224 kts | 283° |
| 2026-05-07 16:09 | 34.83523 | -77.21182 | 23940 ft | 224 kts | 283° |
| 2026-05-07 16:09 | 34.83969 | -77.22997 | 23930 ft | 224 kts | 283° |
| 2026-05-07 16:10 | 34.84416 | -77.24819 | 23921 ft | 224 kts | 283° |
| 2026-05-07 16:10 | 34.84862 | -77.26638 | 23922 ft | 224 kts | 283° |
| 2026-05-07 16:10 | 34.85308 | -77.28456 | 23931 ft | 224 kts | 283° |
| 2026-05-07 16:10 | 34.85753 | -77.30277 | 23921 ft | 224 kts | 283° |
| 2026-05-07 16:11 | 34.86199 | -77.32100 | 23929 ft | 225 kts | 283° |
| 2026-05-07 16:11 | 34.86647 | -77.33927 | 23928 ft | 225 kts | 283° |
| 2026-05-07 16:11 | 34.87094 | -77.35761 | 23925 ft | 226 kts | 283° |
| 2026-05-07 16:11 | 34.87541 | -77.37597 | 23921 ft | 226 kts | 283° |
| 2026-05-07 16:12 | 34.87989 | -77.39431 | 23923 ft | 227 kts | 283° |
| 2026-05-07 16:12 | 34.88440 | -77.41281 | 23929 ft | 228 kts | 283° |
| 2026-05-07 16:12 | 34.88890 | -77.43129 | 23927 ft | 228 kts | 283° |
| 2026-05-07 16:12 | 34.89340 | -77.44976 | 23937 ft | 228 kts | 283° |
| 2026-05-07 16:13 | 34.89790 | -77.46827 | 23934 ft | 228 kts | 283° |
| 2026-05-07 16:13 | 34.90242 | -77.48687 | 23929 ft | 230 kts | 283° |
| 2026-05-07 16:13 | 34.90695 | -77.50555 | 23931 ft | 230 kts | 283° |
| 2026-05-07 16:13 | 34.91190 | -77.52411 | 23928 ft | 231 kts | 287° |
| 2026-05-07 16:14 | 34.91762 | -77.54219 | 23932 ft | 232 kts | 286° |
| 2026-05-07 16:14 | 34.92324 | -77.56059 | 23932 ft | 232 kts | 286° |
| 2026-05-07 16:14 | 34.92889 | -77.57905 | 23933 ft | 233 kts | 286° |
| 2026-05-07 16:14 | 34.93462 | -77.59756 | 23936 ft | 234 kts | 286° |
| 2026-05-07 16:15 | 34.94035 | -77.61611 | 23933 ft | 235 kts | 286° |
| 2026-05-07 16:15 | 34.94608 | -77.63474 | 23929 ft | 235 kts | 286° |
| 2026-05-07 16:15 | 34.95183 | -77.65345 | 23929 ft | 235 kts | 286° |
| 2026-05-07 16:15 | 34.95757 | -77.67212 | 23932 ft | 236 kts | 286° |
| 2026-05-07 16:16 | 34.96333 | -77.69086 | 23930 ft | 237 kts | 286° |
| 2026-05-07 16:16 | 34.96910 | -77.70971 | 23924 ft | 238 kts | 286° |
| 2026-05-07 16:16 | 34.97486 | -77.72855 | 23926 ft | 236 kts | 287° |
| 2026-05-07 16:16 | 34.98065 | -77.74731 | 23918 ft | 237 kts | 287° |
| 2026-05-07 16:17 | 34.98644 | -77.76611 | 23918 ft | 237 kts | 286° |
| 2026-05-07 16:17 | 34.99221 | -77.78498 | 23917 ft | 238 kts | 286° |
| 2026-05-07 16:17 | 34.99798 | -77.80388 | 23919 ft | 238 kts | 286° |
| 2026-05-07 16:17 | 35.00378 | -77.82281 | 23920 ft | 238 kts | 286° |
| 2026-05-07 16:18 | 35.00957 | -77.84176 | 23923 ft | 239 kts | 286° |
| 2026-05-07 16:18 | 35.01528 | -77.86045 | 23916 ft | 239 kts | 286° |
| 2026-05-07 16:18 | 35.02107 | -77.87945 | 23920 ft | 239 kts | 286° |
| 2026-05-07 16:18 | 35.02688 | -77.89846 | 23922 ft | 239 kts | 286° |
| 2026-05-07 16:19 | 35.03268 | -77.91747 | 23924 ft | 239 kts | 286° |
| 2026-05-07 16:19 | 35.03849 | -77.93654 | 23920 ft | 240 kts | 286° |
| 2026-05-07 16:19 | 35.04429 | -77.95560 | 23926 ft | 240 kts | 286° |
| 2026-05-07 16:19 | 35.05005 | -77.97459 | 23915 ft | 239 kts | 287° |
| 2026-05-07 16:20 | 35.05584 | -77.99364 | 23918 ft | 240 kts | 287° |
| 2026-05-07 16:20 | 35.06167 | -78.01272 | 23922 ft | 240 kts | 286° |
| 2026-05-07 16:20 | 35.06747 | -78.03181 | 23929 ft | 240 kts | 286° |
| 2026-05-07 16:20 | 35.07315 | -78.05058 | 23929 ft | 240 kts | 286° |
| 2026-05-07 16:21 | 35.07896 | -78.06971 | 23921 ft | 240 kts | 286° |
| 2026-05-07 16:21 | 35.08477 | -78.08891 | 23917 ft | 241 kts | 286° |
| 2026-05-07 16:21 | 35.09057 | -78.10803 | 23923 ft | 241 kts | 287° |
| 2026-05-07 16:21 | 35.09640 | -78.12730 | 23915 ft | 241 kts | 286° |
| 2026-05-07 16:22 | 35.10223 | -78.14657 | 23912 ft | 242 kts | 286° |
| 2026-05-07 16:22 | 35.10806 | -78.16583 | 23915 ft | 242 kts | 286° |
| 2026-05-07 16:22 | 35.11389 | -78.18513 | 23910 ft | 242 kts | 287° |
| 2026-05-07 16:22 | 35.11971 | -78.20443 | 23909 ft | 242 kts | 286° |
| 2026-05-07 16:23 | 35.12555 | -78.22377 | 23909 ft | 243 kts | 286° |
| 2026-05-07 16:23 | 35.13138 | -78.24312 | 23911 ft | 243 kts | 286° |
| 2026-05-07 16:23 | 35.13721 | -78.26248 | 23911 ft | 243 kts | 287° |
| 2026-05-07 16:23 | 35.14304 | -78.28182 | 23907 ft | 243 kts | 286° |
| 2026-05-07 16:24 | 35.14888 | -78.30123 | 23911 ft | 243 kts | 286° |
| 2026-05-07 16:24 | 35.15471 | -78.32062 | 23912 ft | 243 kts | 286° |
| 2026-05-07 16:24 | 35.16054 | -78.34004 | 23910 ft | 244 kts | 286° |
| 2026-05-07 16:24 | 35.16639 | -78.35951 | 23910 ft | 244 kts | 286° |
| 2026-05-07 16:25 | 35.17224 | -78.37900 | 23912 ft | 244 kts | 286° |
| 2026-05-07 16:25 | 35.17806 | -78.39845 | 23908 ft | 244 kts | 286° |
| 2026-05-07 16:25 | 35.18394 | -78.41804 | 23908 ft | 245 kts | 286° |
| 2026-05-07 16:25 | 35.18969 | -78.43726 | 23905 ft | 245 kts | 286° |
| 2026-05-07 16:26 | 35.19563 | -78.45711 | 23904 ft | 246 kts | 286° |
| 2026-05-07 16:26 | 35.20149 | -78.47669 | 23904 ft | 246 kts | 286° |
| 2026-05-07 16:26 | 35.20731 | -78.49615 | 23904 ft | 247 kts | 286° |
| 2026-05-07 16:26 | 35.21124 | -78.50948 | 23902 ft | 247 kts | 286° |
| 2026-05-07 16:27 | 35.21892 | -78.53569 | 23904 ft | 247 kts | 285° |
| 2026-05-07 16:27 | 35.22474 | -78.55550 | 23906 ft | 248 kts | 285° |
| 2026-05-07 16:27 | 35.23058 | -78.57536 | 23907 ft | 248 kts | 285° |
| 2026-05-07 16:27 | 35.23643 | -78.59524 | 23905 ft | 248 kts | 285° |
| 2026-05-07 16:28 | 35.24227 | -78.61512 | 23909 ft | 249 kts | 285° |
| 2026-05-07 16:28 | 35.24809 | -78.63500 | 23910 ft | 249 kts | 285° |
| 2026-05-07 16:28 | 35.25393 | -78.65492 | 23912 ft | 249 kts | 285° |
| 2026-05-07 16:28 | 35.25976 | -78.67486 | 23914 ft | 249 kts | 285° |
| 2026-05-07 16:29 | 35.26562 | -78.69485 | 23913 ft | 250 kts | 285° |
| 2026-05-07 16:29 | 35.27147 | -78.71485 | 23919 ft | 250 kts | 285° |
| 2026-05-07 16:29 | 35.27732 | -78.73486 | 23916 ft | 250 kts | 285° |
| 2026-05-07 16:29 | 35.28317 | -78.75488 | 23912 ft | 250 kts | 285° |
| 2026-05-07 16:30 | 35.28900 | -78.77488 | 23915 ft | 250 kts | 285° |
| 2026-05-07 16:30 | 35.29288 | -78.78815 | 23913 ft | 250 kts | 285° |
| 2026-05-07 16:30 | 35.29871 | -78.80816 | 23917 ft | 250 kts | 285° |
| 2026-05-07 16:30 | 35.30455 | -78.82819 | 23914 ft | 250 kts | 285° |
| 2026-05-07 16:31 | 35.31246 | -78.85465 | 23912 ft | 250 kts | 287° |
| 2026-05-07 16:31 | 35.31893 | -78.87442 | 23911 ft | 250 kts | 287° |
| 2026-05-07 16:31 | 35.32536 | -78.89419 | 23913 ft | 250 kts | 287° |
| 2026-05-07 16:31 | 35.33173 | -78.91393 | 23909 ft | 250 kts | 287° |
| 2026-05-07 16:32 | 35.33818 | -78.93386 | 23910 ft | 251 kts | 287° |
| 2026-05-07 16:32 | 35.34242 | -78.94699 | 23905 ft | 251 kts | 287° |
| 2026-05-07 16:32 | 35.34895 | -78.96720 | 23896 ft | 251 kts | 287° |
| 2026-05-07 16:32 | 35.35537 | -78.98704 | 23896 ft | 250 kts | 287° |
| 2026-05-07 16:33 | 35.36168 | -79.00657 | 23896 ft | 250 kts | 287° |
| 2026-05-07 16:33 | 35.36808 | -79.02642 | 23897 ft | 250 kts | 287° |
| 2026-05-07 16:33 | 35.37453 | -79.04610 | 23896 ft | 250 kts | 288° |
| 2026-05-07 16:33 | 35.38120 | -79.06584 | 23897 ft | 250 kts | 288° |
| 2026-05-07 16:34 | 35.38780 | -79.08550 | 23896 ft | 249 kts | 287° |
| 2026-05-07 16:34 | 35.39431 | -79.10507 | 23899 ft | 248 kts | 287° |
| 2026-05-07 16:34 | 35.40066 | -79.12473 | 23894 ft | 247 kts | 286° |
| 2026-05-07 16:34 | 35.40679 | -79.14428 | 23895 ft | 247 kts | 287° |
| 2026-05-07 16:35 | 35.41304 | -79.16400 | 23895 ft | 246 kts | 287° |
| 2026-05-07 16:35 | 35.41921 | -79.18355 | 23894 ft | 246 kts | 287° |
| 2026-05-07 16:35 | 35.42536 | -79.20307 | 23895 ft | 245 kts | 286° |
| 2026-05-07 16:35 | 35.43148 | -79.22257 | 23893 ft | 245 kts | 286° |
| 2026-05-07 16:36 | 35.43760 | -79.24207 | 23893 ft | 244 kts | 286° |
| 2026-05-07 16:36 | 35.44370 | -79.26151 | 23891 ft | 244 kts | 286° |
| 2026-05-07 16:36 | 35.44981 | -79.28089 | 23889 ft | 243 kts | 287° |
| 2026-05-07 16:36 | 35.45586 | -79.30016 | 23891 ft | 243 kts | 286° |
| 2026-05-07 16:37 | 35.46191 | -79.31956 | 23889 ft | 243 kts | 286° |
| 2026-05-07 16:37 | 35.46797 | -79.33887 | 23891 ft | 242 kts | 287° |
| 2026-05-07 16:37 | 35.47401 | -79.35807 | 23890 ft | 240 kts | 286° |
| 2026-05-07 16:37 | 35.47996 | -79.37712 | 23896 ft | 241 kts | 286° |
| 2026-05-07 16:38 | 35.48592 | -79.39625 | 23886 ft | 240 kts | 286° |
| 2026-05-07 16:38 | 35.49174 | -79.41537 | 23885 ft | 238 kts | 285° |
| 2026-05-07 16:38 | 35.49735 | -79.43449 | 23835 ft | 240 kts | 285° |
| 2026-05-07 16:38 | 35.50316 | -79.45402 | 23575 ft | 248 kts | 285° |
| 2026-05-07 16:39 | 35.50904 | -79.47384 | 23220 ft | 245 kts | 286° |
| 2026-05-07 16:39 | 35.51481 | -79.49339 | 22894 ft | 243 kts | 285° |
| 2026-05-07 16:39 | 35.52053 | -79.51286 | 22579 ft | 242 kts | 285° |
| 2026-05-07 16:39 | 35.52622 | -79.53224 | 22265 ft | 241 kts | 285° |
| 2026-05-07 16:40 | 35.53191 | -79.55159 | 21942 ft | 241 kts | 286° |
| 2026-05-07 16:40 | 35.53759 | -79.57088 | 21623 ft | 240 kts | 285° |
| 2026-05-07 16:40 | 35.54454 | -79.58952 | 21311 ft | 243 kts | 295° |
| 2026-05-07 16:40 | 35.55437 | -79.60655 | 20989 ft | 247 kts | 304° |
| 2026-05-07 16:41 | 35.56698 | -79.62154 | 20646 ft | 260 kts | 314° |
| 2026-05-07 16:41 | 35.58257 | -79.63416 | 20260 ft | 273 kts | 322° |
| 2026-05-07 16:41 | 35.59853 | -79.64570 | 20305 ft | 278 kts | 322° |
| 2026-05-07 16:41 | 35.61607 | -79.65866 | 19572 ft | 292 kts | 321° |
| 2026-05-07 16:42 | 35.63328 | -79.67135 | 19121 ft | 291 kts | 322° |
| 2026-05-07 16:42 | 35.65063 | -79.68403 | 18744 ft | 290 kts | 322° |
| 2026-05-07 16:42 | 35.66754 | -79.69640 | 18164 ft | 271 kts | 321° |
| 2026-05-07 16:42 | 35.68346 | -79.70811 | 17942 ft | 265 kts | 320° |
| 2026-05-07 16:43 | 35.69919 | -79.71979 | 17612 ft | 264 kts | 320° |
| 2026-05-07 16:43 | 35.71499 | -79.73147 | 17252 ft | 264 kts | 320° |
| 2026-05-07 16:43 | 35.73075 | -79.74305 | 16921 ft | 263 kts | 320° |
| 2026-05-07 16:43 | 35.74636 | -79.75453 | 16671 ft | 260 kts | 320° |
| 2026-05-07 16:44 | 35.76187 | -79.76600 | 16339 ft | 261 kts | 320° |
| 2026-05-07 16:44 | 35.77745 | -79.77752 | 15979 ft | 261 kts | 320° |
| 2026-05-07 16:44 | 35.79295 | -79.78894 | 15635 ft | 259 kts | 320° |
| 2026-05-07 16:45 | 35.80670 | -79.79909 | 15332 ft | 258 kts | 320° |
| 2026-05-07 16:45 | 35.82208 | -79.81050 | 14994 ft | 258 kts | 319° |
| 2026-05-07 16:45 | 35.83737 | -79.82178 | 14658 ft | 246 kts | 320° |
| 2026-05-07 16:45 | 35.85076 | -79.83138 | 14450 ft | 209 kts | 318° |
| 2026-05-07 16:46 | 35.86291 | -79.84051 | 14259 ft | 204 kts | 317° |
| 2026-05-07 16:46 | 35.87478 | -79.84943 | 14049 ft | 199 kts | 317° |
| 2026-05-07 16:46 | 35.88670 | -79.85833 | 13801 ft | 201 kts | 317° |
| 2026-05-07 16:46 | 35.89863 | -79.86714 | 13525 ft | 197 kts | 317° |
| 2026-05-07 16:47 | 35.91029 | -79.87576 | 13293 ft | 197 kts | 317° |
| 2026-05-07 16:47 | 35.92206 | -79.88454 | 13022 ft | 199 kts | 318° |
| 2026-05-07 16:47 | 35.93377 | -79.89317 | 12782 ft | 194 kts | 317° |
| 2026-05-07 16:47 | 35.94541 | -79.90183 | 12531 ft | 197 kts | 317° |
| 2026-05-07 16:48 | 35.95700 | -79.91044 | 12267 ft | 195 kts | 317° |
| 2026-05-07 16:48 | 35.96855 | -79.91899 | 12024 ft | 194 kts | 317° |
| 2026-05-07 16:48 | 35.98011 | -79.92759 | 11774 ft | 194 kts | 317° |
| 2026-05-07 16:48 | 35.99167 | -79.93619 | 11519 ft | 195 kts | 317° |
| 2026-05-07 16:49 | 36.00408 | -79.94358 | 11255 ft | 203 kts | 328° |
| 2026-05-07 16:49 | 36.01786 | -79.94749 | 10991 ft | 213 kts | 341° |
| 2026-05-07 16:49 | 36.03296 | -79.94744 | 10710 ft | 219 kts | 354° |
| 2026-05-07 16:49 | 36.04811 | -79.94289 | 10426 ft | 230 kts | 9° |
| 2026-05-07 16:50 | 36.06260 | -79.93340 | 10328 ft | 245 kts | 26° |
| 2026-05-07 16:50 | 36.07481 | -79.91948 | 9862 ft | 255 kts | 45° |
| 2026-05-07 16:50 | 36.08519 | -79.90066 | 9470 ft | 260 kts | 54° |
| 2026-05-07 16:50 | 36.09410 | -79.88295 | 9117 ft | 231 kts | 53° |
| 2026-05-07 16:51 | 36.10278 | -79.86628 | 8803 ft | 225 kts | 52° |
| 2026-05-07 16:51 | 36.11127 | -79.85006 | 8503 ft | 225 kts | 53° |
| 2026-05-07 16:51 | 36.11968 | -79.83386 | 8206 ft | 222 kts | 53° |
| 2026-05-07 16:51 | 36.12730 | -79.81897 | 7923 ft | 191 kts | 53° |
| 2026-05-07 16:52 | 36.13417 | -79.80573 | 7786 ft | 193 kts | 52° |
| 2026-05-07 16:52 | 36.14188 | -79.79109 | 7458 ft | 213 kts | 53° |
| 2026-05-07 16:52 | 36.14935 | -79.77649 | 7161 ft | 192 kts | 54° |
| 2026-05-07 16:52 | 36.15612 | -79.76329 | 7022 ft | 171 kts | 53° |
| 2026-05-07 16:53 | 36.16272 | -79.75066 | 6851 ft | 193 kts | 53° |
| 2026-05-07 16:53 | 36.17021 | -79.73627 | 6453 ft | 191 kts | 54° |
| 2026-05-07 16:53 | 36.17745 | -79.72402 | 6274 ft | 159 kts | 41° |
| 2026-05-07 16:53 | 36.18662 | -79.71588 | 6092 ft | 168 kts | 21° |
| 2026-05-07 16:54 | 36.19799 | -79.71201 | 5854 ft | 169 kts | 0° |
| 2026-05-07 16:54 | 36.20915 | -79.71314 | 5711 ft | 158 kts | 342° |
| 2026-05-07 16:54 | 36.21900 | -79.71852 | 5503 ft | 155 kts | 324° |
| 2026-05-07 16:54 | 36.22705 | -79.72722 | 5296 ft | 152 kts | 314° |
| 2026-05-07 16:55 | 36.23470 | -79.73635 | 5088 ft | 153 kts | 314° |
| 2026-05-07 16:55 | 36.24080 | -79.74685 | 4784 ft | 149 kts | 288° |
| 2026-05-07 16:55 | 36.24312 | -79.75792 | 4605 ft | 136 kts | 270° |
| 2026-05-07 16:55 | 36.24254 | -79.76863 | 4412 ft | 107 kts | 256° |
| 2026-05-07 16:56 | 36.24033 | -79.77627 | 4251 ft | 91 kts | 244° |
| 2026-05-07 16:56 | 36.23689 | -79.78295 | 4142 ft | 91 kts | 234° |
| 2026-05-07 16:56 | 36.22828 | -79.79411 | 3918 ft | 96 kts | 230° |
| 2026-05-07 16:57 | 36.22418 | -79.79933 | 3784 ft | 80 kts | 231° |
| 2026-05-07 16:57 | 36.21981 | -79.80500 | 3688 ft | 95 kts | 230° |
| 2026-05-07 16:57 | 36.21576 | -79.81012 | 3545 ft | 78 kts | 231° |
| 2026-05-07 16:57 | 36.21154 | -79.81558 | 3467 ft | 95 kts | 230° |
| 2026-05-07 16:58 | 36.20739 | -79.82082 | 3323 ft | 77 kts | 230° |
| 2026-05-07 16:58 | 36.20332 | -79.82609 | 3237 ft | 93 kts | 230° |
| 2026-05-07 16:58 | 36.19927 | -79.83124 | 3103 ft | 73 kts | 229° |
| 2026-05-07 16:58 | 36.19540 | -79.83624 | 3018 ft | 96 kts | 229° |
| 2026-05-07 16:59 | 36.19100 | -79.84183 | 2897 ft | 75 kts | 228° |
| 2026-05-07 16:59 | 36.18734 | -79.84653 | 2795 ft | 84 kts | 228° |
| 2026-05-07 16:59 | 36.18341 | -79.85154 | 2685 ft | 80 kts | 229° |
| 2026-05-07 16:59 | 36.17961 | -79.85642 | 2576 ft | 78 kts | 228° |
| 2026-05-07 17:00 | 36.17585 | -79.86123 | 2453 ft | 77 kts | 228° |
| 2026-05-07 17:00 | 36.17220 | -79.86588 | 2350 ft | 74 kts | 229° |
| 2026-05-07 17:00 | 36.16873 | -79.87036 | 2251 ft | 69 kts | 227° |
| 2026-05-07 17:00 | 36.16522 | -79.87485 | 2163 ft | 76 kts | 226° |
| 2026-05-07 17:01 | 36.16146 | -79.87964 | 2063 ft | 79 kts | 225° |
| 2026-05-07 17:01 | 36.15763 | -79.88453 | 1951 ft | 80 kts | 227° |
| 2026-05-07 17:01 | 36.15383 | -79.88942 | 1849 ft | 80 kts | 224° |
| 2026-05-07 17:01 | 36.14986 | -79.89448 | 1743 ft | 86 kts | 227° |
| 2026-05-07 17:02 | 36.14551 | -79.90005 | 1653 ft | 92 kts | 222° |
| 2026-05-07 17:02 | 36.14120 | -79.90554 | 1534 ft | 88 kts | 225° |
| 2026-05-07 17:02 | 36.13669 | -79.91131 | 1440 ft | 102 kts | 226° |
| 2026-05-07 17:02 | 36.13140 | -79.91805 | 1328 ft | 116 kts | 227° |
| 2026-05-07 17:03 | 36.12572 | -79.92536 | 1171 ft | 119 kts | 227° |
| 2026-05-07 17:03 | 36.12003 | -79.93266 | 1024 ft | 117 kts | 227° |
| 2026-05-07 17:03 | 36.11444 | -79.93978 | 896 ft | 109 kts | 226° |
| 2026-05-07 17:03 | 36.10983 | -79.94561 | 894 ft | 80 kts | 226° |
| 2026-05-07 17:04 | 36.10698 | -79.94923 | 898 ft | 55 kts | 225° |
| 2026-05-07 17:04 | 36.10530 | -79.95135 | 901 ft | 26 kts | 225° |
| 2026-05-07 17:04 | 36.10381 | -79.95252 | 903 ft | 19 kts | 196° |
| 2026-05-07 17:04 | 36.10258 | -79.95285 | 903 ft | 20 kts | 172° |
| 2026-05-07 17:05 | 36.10106 | -79.95129 | 902 ft | 36 kts | 134° |
| 2026-05-07 17:05 | 36.09978 | -79.94970 | 902 ft | 22 kts | 135° |
| 2026-05-07 17:05 | 36.09857 | -79.94823 | 902 ft | 20 kts | 135° |
| 2026-05-07 17:05 | 36.09745 | -79.94687 | 902 ft | 17 kts | 135° |
| 2026-05-07 17:06 | 36.09641 | -79.94683 | 903 ft | 18 kts | 225° |
| 2026-05-07 17:06 | 36.09561 | -79.94796 | 909 ft | 19 kts | 243° |
| 2026-05-07 17:06 | 36.09480 | -79.94876 | 902 ft | 18 kts | 214° |
| 2026-05-07 17:06 | 36.09407 | -79.94966 | 901 ft | 17 kts | 226° |
| 2026-05-07 17:07 | 36.09330 | -79.94974 | 901 ft | 14 kts | 168° |
| 2026-05-07 17:07 | 36.09264 | -79.94937 | 901 ft | 16 kts | 117° |
| 2026-05-07 17:07 | 36.09256 | -79.94947 | 901 ft | 7 kts | 314° |
| 2026-05-07 17:07 | 36.09262 | -79.94955 | 901 ft | 0 kts | 313° |